DLH9AF EDDF-EGCC
Flight info
| Callsign | DLH9AF |
|---|---|
| Flight time | N/A |
| Altitude | 34000 |
| Route | OBOKA3D OBOKA Z29 TORNU DCT GALSO Q63 ERING L179 LAM UN57 WELIN T420 ELVOS |
| Aircraft | A321/M-SDE3FGHIRWY/LB1 |
Departure
| Time | 2026-04-14 12:11 |
|---|---|
| Airport | Frankfurt Main Airport (EDDF) |
Arrival
| Time | N/A |
|---|---|
| Airport | Manchester Airport (EGCC) |
| Time | Latitude | Longitude | Altitude | Speed | Heading |
|---|---|---|---|---|---|
| 2026-04-14 11:28 | 50.04535 | 8.56578 | 356 ft | 0 kts | 115° |
| 2026-04-14 12:00 | 50.04544 | 8.56549 | 362 ft | 3 kts | 116° |
| 2026-04-14 12:00 | 50.04555 | 8.56516 | 363 ft | 3 kts | 121° |
| 2026-04-14 12:01 | 50.04569 | 8.56485 | 364 ft | 3 kts | 136° |
| 2026-04-14 12:01 | 50.04586 | 8.56468 | 361 ft | 3 kts | 186° |
| 2026-04-14 12:01 | 50.04588 | 8.56466 | 360 ft | 3 kts | 205° |
| 2026-04-14 12:01 | 50.04574 | 8.56456 | 359 ft | 0 kts | 205° |
| 2026-04-14 12:04 | 50.04569 | 8.56453 | 360 ft | 0 kts | 204° |
| 2026-04-14 12:04 | 50.04558 | 8.56445 | 358 ft | 4 kts | 204° |
| 2026-04-14 12:05 | 50.04525 | 8.56407 | 362 ft | 8 kts | 234° |
| 2026-04-14 12:05 | 50.04499 | 8.56313 | 359 ft | 11 kts | 249° |
| 2026-04-14 12:05 | 50.04470 | 8.56193 | 363 ft | 12 kts | 250° |
| 2026-04-14 12:05 | 50.04436 | 8.56065 | 365 ft | 13 kts | 234° |
| 2026-04-14 12:06 | 50.04354 | 8.56049 | 360 ft | 13 kts | 160° |
| 2026-04-14 12:06 | 50.04290 | 8.56124 | 359 ft | 13 kts | 104° |
| 2026-04-14 12:06 | 50.04244 | 8.56236 | 359 ft | 14 kts | 154° |
| 2026-04-14 12:06 | 50.04161 | 8.56285 | 360 ft | 12 kts | 167° |
| 2026-04-14 12:07 | 50.04108 | 8.56198 | 356 ft | 13 kts | 249° |
| 2026-04-14 12:07 | 50.04075 | 8.56057 | 358 ft | 15 kts | 249° |
| 2026-04-14 12:07 | 50.04037 | 8.55901 | 357 ft | 16 kts | 249° |
| 2026-04-14 12:07 | 50.03995 | 8.55728 | 354 ft | 18 kts | 249° |
| 2026-04-14 12:08 | 50.03952 | 8.55544 | 353 ft | 19 kts | 250° |
| 2026-04-14 12:08 | 50.03906 | 8.55353 | 357 ft | 19 kts | 250° |
| 2026-04-14 12:08 | 50.03859 | 8.55154 | 354 ft | 20 kts | 250° |
| 2026-04-14 12:08 | 50.03809 | 8.54945 | 353 ft | 21 kts | 249° |
| 2026-04-14 12:09 | 50.03755 | 8.54724 | 351 ft | 22 kts | 249° |
| 2026-04-14 12:09 | 50.03700 | 8.54490 | 348 ft | 23 kts | 250° |
| 2026-04-14 12:09 | 50.03654 | 8.54330 | 348 ft | 14 kts | 227° |
| 2026-04-14 12:09 | 50.03557 | 8.54340 | 347 ft | 14 kts | 160° |
| 2026-04-14 12:10 | 50.03494 | 8.54386 | 349 ft | 8 kts | 130° |
| 2026-04-14 12:10 | 50.03500 | 8.54461 | 348 ft | 8 kts | 70° |
| 2026-04-14 12:10 | 50.03534 | 8.54602 | 348 ft | 36 kts | 69° |
| 2026-04-14 12:10 | 50.03711 | 8.55336 | 353 ft | 106 kts | 69° |
| 2026-04-14 12:11 | 50.04041 | 8.56704 | 368 ft | 160 kts | 69° |
| 2026-04-14 12:11 | 50.04427 | 8.58376 | 929 ft | 166 kts | 68° |
| 2026-04-14 12:11 | 50.04821 | 8.60062 | 1680 ft | 167 kts | 67° |
| 2026-04-14 12:11 | 50.05255 | 8.61828 | 2098 ft | 184 kts | 62° |
| 2026-04-14 12:12 | 50.06170 | 8.63294 | 2342 ft | 200 kts | 25° |
| 2026-04-14 12:12 | 50.07557 | 8.63612 | 2765 ft | 207 kts | 357° |
| 2026-04-14 12:12 | 50.09007 | 8.63506 | 3436 ft | 209 kts | 357° |
| 2026-04-14 12:12 | 50.10475 | 8.63395 | 4083 ft | 213 kts | 358° |
| 2026-04-14 12:13 | 50.12031 | 8.63281 | 4333 ft | 236 kts | 358° |
| 2026-04-14 12:13 | 50.13736 | 8.63163 | 4794 ft | 251 kts | 358° |
| 2026-04-14 12:13 | 50.15497 | 8.63044 | 5506 ft | 255 kts | 358° |
| 2026-04-14 12:13 | 50.17250 | 8.62924 | 6230 ft | 257 kts | 358° |
| 2026-04-14 12:14 | 50.19074 | 8.62803 | 6957 ft | 261 kts | 358° |
| 2026-04-14 12:14 | 50.20900 | 8.62681 | 7637 ft | 264 kts | 357° |
| 2026-04-14 12:14 | 50.22754 | 8.62554 | 8293 ft | 269 kts | 356° |
| 2026-04-14 12:14 | 50.24003 | 8.62470 | 8711 ft | 273 kts | 356° |
| 2026-04-14 12:15 | 50.26560 | 8.62300 | 9508 ft | 282 kts | 356° |
| 2026-04-14 12:15 | 50.28547 | 8.62157 | 10099 ft | 288 kts | 353° |
| 2026-04-14 12:15 | 50.30506 | 8.61472 | 10614 ft | 291 kts | 335° |
| 2026-04-14 12:15 | 50.32256 | 8.59826 | 10971 ft | 302 kts | 316° |
| 2026-04-14 12:16 | 50.33213 | 8.58204 | 11062 ft | 313 kts | 303° |
| 2026-04-14 12:16 | 50.34187 | 8.55064 | 11190 ft | 330 kts | 287° |
| 2026-04-14 12:16 | 50.34926 | 8.51569 | 11453 ft | 343 kts | 287° |
| 2026-04-14 12:16 | 50.35687 | 8.47992 | 11979 ft | 348 kts | 287° |
| 2026-04-14 12:17 | 50.36463 | 8.44386 | 12573 ft | 351 kts | 287° |
| 2026-04-14 12:17 | 50.37214 | 8.40722 | 13165 ft | 354 kts | 282° |
| 2026-04-14 12:17 | 50.37557 | 8.36910 | 13748 ft | 355 kts | 270° |
| 2026-04-14 12:17 | 50.37375 | 8.33045 | 14306 ft | 356 kts | 259° |
| 2026-04-14 12:18 | 50.36716 | 8.29278 | 14732 ft | 362 kts | 253° |
| 2026-04-14 12:18 | 50.35951 | 8.25494 | 15183 ft | 367 kts | 253° |
| 2026-04-14 12:18 | 50.35180 | 8.21669 | 15692 ft | 369 kts | 253° |
| 2026-04-14 12:18 | 50.34407 | 8.17825 | 16272 ft | 370 kts | 253° |
| 2026-04-14 12:19 | 50.33632 | 8.13968 | 16755 ft | 373 kts | 253° |
| 2026-04-14 12:19 | 50.32849 | 8.10064 | 17198 ft | 378 kts | 253° |
| 2026-04-14 12:19 | 50.32058 | 8.06127 | 17688 ft | 381 kts | 253° |
| 2026-04-14 12:19 | 50.31271 | 8.02212 | 18146 ft | 384 kts | 254° |
| 2026-04-14 12:20 | 50.30467 | 7.98201 | 18573 ft | 388 kts | 255° |
| 2026-04-14 12:20 | 50.29976 | 7.94053 | 18935 ft | 390 kts | 266° |
| 2026-04-14 12:20 | 50.30052 | 7.89767 | 19359 ft | 390 kts | 278° |
| 2026-04-14 12:20 | 50.30666 | 7.85695 | 19766 ft | 391 kts | 290° |
| 2026-04-14 12:21 | 50.31743 | 7.81787 | 20234 ft | 391 kts | 295° |
| 2026-04-14 12:21 | 50.32874 | 7.77909 | 20675 ft | 393 kts | 295° |
| 2026-04-14 12:21 | 50.34011 | 7.74003 | 21060 ft | 395 kts | 296° |
| 2026-04-14 12:21 | 50.35424 | 7.70296 | 21446 ft | 398 kts | 306° |
| 2026-04-14 12:22 | 50.37268 | 7.67068 | 21843 ft | 400 kts | 317° |
| 2026-04-14 12:22 | 50.39495 | 7.64427 | 22233 ft | 404 kts | 328° |
| 2026-04-14 12:22 | 50.42018 | 7.62462 | 22630 ft | 407 kts | 335° |
| 2026-04-14 12:22 | 50.44631 | 7.60682 | 23013 ft | 410 kts | 335° |
| 2026-04-14 12:23 | 50.47254 | 7.58883 | 23384 ft | 413 kts | 335° |
| 2026-04-14 12:23 | 50.49890 | 7.57063 | 23769 ft | 415 kts | 335° |
| 2026-04-14 12:23 | 50.52538 | 7.55226 | 24089 ft | 417 kts | 335° |
| 2026-04-14 12:23 | 50.55188 | 7.53363 | 24416 ft | 418 kts | 332° |
| 2026-04-14 12:24 | 50.57698 | 7.51052 | 24731 ft | 419 kts | 326° |
| 2026-04-14 12:24 | 50.60146 | 7.48543 | 25053 ft | 421 kts | 326° |
| 2026-04-14 12:24 | 50.62607 | 7.46017 | 25371 ft | 423 kts | 326° |
| 2026-04-14 12:24 | 50.65070 | 7.43489 | 25755 ft | 423 kts | 326° |
| 2026-04-14 12:25 | 50.67505 | 7.40989 | 26107 ft | 423 kts | 326° |
| 2026-04-14 12:25 | 50.69979 | 7.38449 | 26449 ft | 425 kts | 326° |
| 2026-04-14 12:25 | 50.72371 | 7.35716 | 26769 ft | 426 kts | 319° |
| 2026-04-14 12:25 | 50.74459 | 7.32397 | 27078 ft | 427 kts | 309° |
| 2026-04-14 12:26 | 50.76174 | 7.28568 | 27399 ft | 429 kts | 300° |
| 2026-04-14 12:26 | 50.77562 | 7.24391 | 27679 ft | 431 kts | 297° |
| 2026-04-14 12:26 | 50.78931 | 7.20166 | 27978 ft | 432 kts | 298° |
| 2026-04-14 12:26 | 50.80309 | 7.15934 | 28269 ft | 434 kts | 298° |
| 2026-04-14 12:27 | 50.81697 | 7.11682 | 28553 ft | 436 kts | 298° |
| 2026-04-14 12:27 | 50.83089 | 7.07409 | 28810 ft | 437 kts | 298° |
| 2026-04-14 12:27 | 50.84479 | 7.03124 | 29052 ft | 439 kts | 298° |
| 2026-04-14 12:27 | 50.85868 | 6.98820 | 29345 ft | 439 kts | 298° |
| 2026-04-14 12:28 | 50.87254 | 6.94514 | 29589 ft | 440 kts | 298° |
| 2026-04-14 12:28 | 50.88641 | 6.90204 | 29901 ft | 439 kts | 298° |
| 2026-04-14 12:28 | 50.90025 | 6.85893 | 30233 ft | 438 kts | 298° |
| 2026-04-14 12:28 | 50.91404 | 6.81592 | 30517 ft | 437 kts | 298° |